Time;durP1;ratioP1;P1;durP2;ratioP2;P2;SDS_P1;SDS_P2;PMS_P1;PMS_P2;Temp;Humidity;BMP_temperature;BMP_pressure;BME280_temperature;BME280_humidity;BME280_pressure;Samples;Min_cycle;Max_cycle;Signal;HPM_P1;HPM_P2
2021/01/25 00:00:22;;;;;;;57.97;35.87;;;;;;;;;;2088711;28;20879;-58
2021/01/25 00:01:22;;;;;;;50.40;35.70;;;;;;;;;;2095552;28;20220;-58
2021/01/25 00:02:23;;;;;;;57.70;35.43;;;;;;;;;;2088692;28;20597;-58
2021/01/25 00:03:23;;;;;;;51.83;33.10;;;;;;;;;;2091527;28;20183;-60
2021/01/25 00:04:23;;;;;;;53.10;34.43;;;;;;;;;;2100750;28;20179;-59
2021/01/25 00:05:23;;;;;;;45.53;32.90;;;;;;;;;;2101120;28;20171;-58
2021/01/25 00:06:24;;;;;;;48.93;32.67;;;;;;;;;;2092566;28;20183;-59
2021/01/25 00:07:24;;;;;;;46.67;32.73;;;;;;;;;;2093039;28;20180;-59
2021/01/25 00:08:24;;;;;;;49.37;33.27;;;;;;;;;;2098983;28;20224;-59
2021/01/25 00:09:24;;;;;;;47.17;32.83;;;;;;;;;;2093422;28;20213;-55
2021/01/25 00:10:25;;;;;;;51.90;34.60;;;;;;;;;;2092806;28;20167;-57
2021/01/25 00:11:25;;;;;;;56.53;33.97;;;;;;;;;;2100627;28;20206;-60
2021/01/25 00:12:28;;;;;;;54.80;33.13;;;;;;;;;;2101934;28;20208;-58
2021/01/25 00:13:28;;;;;;;48.17;32.50;;;;;;;;;;2103270;28;20178;-58
2021/01/25 00:14:28;;;;;;;52.77;33.87;;;;;;;;;;2101335;28;20422;-58
2021/01/25 00:15:28;;;;;;;46.20;31.40;;;;;;;;;;2102514;28;20170;-59
2021/01/25 00:16:29;;;;;;;50.30;32.73;;;;;;;;;;2099110;28;20231;-59
2021/01/25 00:17:29;;;;;;;51.37;35.30;;;;;;;;;;2101734;28;20182;-57
2021/01/25 00:18:29;;;;;;;49.00;34.57;;;;;;;;;;2101741;28;20226;-56
2021/01/25 00:19:30;;;;;;;51.57;35.17;;;;;;;;;;2100705;28;20174;-60
2021/01/25 00:20:30;;;;;;;49.23;32.20;;;;;;;;;;2103392;28;20170;-58
2021/01/25 00:21:30;;;;;;;51.70;34.00;;;;;;;;;;2082471;28;20668;-59
2021/01/25 00:22:30;;;;;;;54.17;34.37;;;;;;;;;;2086385;28;20211;-56
2021/01/25 00:23:31;;;;;;;56.03;34.57;;;;;;;;;;2090239;28;20313;-58
2021/01/25 00:24:31;;;;;;;58.90;34.53;;;;;;;;;;2102219;28;20216;-59
2021/01/25 00:25:31;;;;;;;57.60;35.10;;;;;;;;;;2101994;28;20167;-61
2021/01/25 00:26:31;;;;;;;57.77;35.97;;;;;;;;;;2101119;28;20265;-57
2021/01/25 00:27:32;;;;;;;52.13;33.87;;;;;;;;;;2103250;28;20178;-59
2021/01/25 00:28:32;;;;;;;56.33;34.67;;;;;;;;;;2096942;28;20183;-56
2021/01/25 00:29:32;;;;;;;57.23;36.07;;;;;;;;;;2101887;28;20209;-61
2021/01/25 00:30:33;;;;;;;61.37;37.10;;;;;;;;;;2101049;28;20186;-59
2021/01/25 00:31:33;;;;;;;58.43;37.23;;;;;;;;;;2100842;28;20166;-59
2021/01/25 00:32:33;;;;;;;60.97;36.90;;;;;;;;;;2098997;28;20698;-58
2021/01/25 00:33:33;;;;;;;55.77;35.33;;;;;;;;;;2103948;28;20265;-57
2021/01/25 00:34:34;;;;;;;52.37;34.07;;;;;;;;;;2095046;28;20167;-56
2021/01/25 00:35:34;;;;;;;57.93;35.97;;;;;;;;;;2093261;28;20190;-58
2021/01/25 00:36:34;;;;;;;51.23;35.00;;;;;;;;;;2095328;28;20212;-58
2021/01/25 00:37:34;;;;;;;51.30;34.57;;;;;;;;;;2091061;28;20465;-57
2021/01/25 00:38:35;;;;;;;54.57;35.80;;;;;;;;;;2098709;28;20211;-60
2021/01/25 00:39:35;;;;;;;54.00;33.43;;;;;;;;;;2103361;28;20190;-58
2021/01/25 00:40:36;;;;;;;54.97;36.07;;;;;;;;;;2093368;28;20211;-58
2021/01/25 00:41:36;;;;;;;57.40;33.10;;;;;;;;;;2094140;28;20191;-59
2021/01/25 00:42:36;;;;;;;49.53;34.13;;;;;;;;;;2092614;28;20995;-60
2021/01/25 00:43:37;;;;;;;53.97;35.30;;;;;;;;;;2091260;28;20187;-59
2021/01/25 00:44:37;;;;;;;57.93;34.87;;;;;;;;;;2101701;28;20224;-59
2021/01/25 00:45:38;;;;;;;51.03;33.43;;;;;;;;;;2101986;28;20220;-58
2021/01/25 00:46:38;;;;;;;63.93;37.07;;;;;;;;;;2102798;28;20182;-58
2021/01/25 00:47:38;;;;;;;60.47;38.00;;;;;;;;;;2092763;28;20600;-59
2021/01/25 00:48:38;;;;;;;59.77;35.83;;;;;;;;;;2093857;28;20176;-60
2021/01/25 00:49:39;;;;;;;59.70;38.60;;;;;;;;;;2105424;28;20553;-59
2021/01/25 00:50:39;;;;;;;58.53;36.60;;;;;;;;;;2103275;28;20210;-56
2021/01/25 00:51:39;;;;;;;56.00;35.63;;;;;;;;;;2103062;28;20210;-56
2021/01/25 00:52:40;;;;;;;55.00;35.60;;;;;;;;;;2093382;28;20201;-58
2021/01/25 00:53:41;;;;;;;52.40;36.03;;;;;;;;;;2083752;28;20309;-62
2021/01/25 00:54:41;;;;;;;57.83;36.30;;;;;;;;;;2084792;28;20409;-58
2021/01/25 00:55:42;;;;;;;58.40;35.30;;;;;;;;;;2085275;28;20652;-58
2021/01/25 00:56:42;;;;;;;56.23;35.03;;;;;;;;;;2092973;28;20629;-58
2021/01/25 00:57:43;;;;;;;52.30;34.93;;;;;;;;;;2085122;28;20179;-59
2021/01/25 00:58:43;;;;;;;57.23;33.90;;;;;;;;;;2090975;28;20211;-57
2021/01/25 00:59:43;;;;;;;52.97;34.70;;;;;;;;;;2099923;28;20507;-58
2021/01/25 01:00:44;;;;;;;56.40;37.00;;;;;;;;;;2090966;28;20182;-57
2021/01/25 01:01:44;;;;;;;51.50;35.63;;;;;;;;;;2091731;28;20195;-58
2021/01/25 01:02:44;;;;;;;55.63;35.83;;;;;;;;;;2093662;28;20191;-59
2021/01/25 01:03:44;;;;;;;54.57;35.90;;;;;;;;;;2091958;28;20259;-58
2021/01/25 01:04:45;;;;;;;53.20;35.03;;;;;;;;;;2091248;28;20632;-59
2021/01/25 01:05:45;;;;;;;50.27;33.93;;;;;;;;;;2091816;28;20261;-59
2021/01/25 01:06:45;;;;;;;53.70;35.53;;;;;;;;;;2098650;28;20190;-55
2021/01/25 01:07:46;;;;;;;53.40;33.27;;;;;;;;;;2102490;28;20166;-57
2021/01/25 01:08:46;;;;;;;55.93;35.97;;;;;;;;;;2100648;28;20198;-60
2021/01/25 01:09:46;;;;;;;55.00;35.00;;;;;;;;;;2101696;28;20190;-59
2021/01/25 01:10:47;;;;;;;54.53;36.47;;;;;;;;;;2102610;28;20175;-58
2021/01/25 01:11:47;;;;;;;55.47;34.57;;;;;;;;;;2102038;28;20203;-61
2021/01/25 01:12:47;;;;;;;54.90;36.23;;;;;;;;;;2101569;28;20253;-59
2021/01/25 01:13:47;;;;;;;55.63;35.57;;;;;;;;;;2093942;28;20171;-59
2021/01/25 01:14:47;;;;;;;58.77;35.63;;;;;;;;;;2083986;28;20612;-57
2021/01/25 01:15:48;;;;;;;58.33;36.53;;;;;;;;;;2085500;28;20184;-58
2021/01/25 01:16:48;;;;;;;52.27;34.93;;;;;;;;;;2084079;28;20258;-57
2021/01/25 01:17:48;;;;;;;59.63;36.23;;;;;;;;;;2093900;28;20764;-56
2021/01/25 01:18:48;;;;;;;54.93;37.20;;;;;;;;;;2097620;28;20218;-56
2021/01/25 01:19:49;;;;;;;60.23;39.50;;;;;;;;;;2083546;28;20176;-58
2021/01/25 01:20:49;;;;;;;62.13;38.47;;;;;;;;;;2083652;28;20187;-59
2021/01/25 01:21:50;;;;;;;58.60;37.53;;;;;;;;;;2100744;28;20190;-60
2021/01/25 01:22:50;;;;;;;55.57;35.07;;;;;;;;;;2103548;28;20203;-57
2021/01/25 01:23:50;;;;;;;52.90;35.53;;;;;;;;;;2101397;28;20182;-57
2021/01/25 01:24:50;;;;;;;52.97;35.13;;;;;;;;;;2103152;28;20167;-58
2021/01/25 01:25:51;;;;;;;50.03;33.00;;;;;;;;;;2091101;28;20700;-59
2021/01/25 01:26:51;;;;;;;51.50;33.10;;;;;;;;;;2094708;28;20179;-57
2021/01/25 01:27:51;;;;;;;54.33;33.73;;;;;;;;;;2103357;28;20197;-55
2021/01/25 01:28:51;;;;;;;49.37;32.23;;;;;;;;;;2089119;28;20176;-56
2021/01/25 01:29:52;;;;;;;48.07;33.57;;;;;;;;;;2094848;28;20717;-58
2021/01/25 01:30:52;;;;;;;49.17;33.73;;;;;;;;;;2101028;28;20182;-61
2021/01/25 01:31:52;;;;;;;50.77;33.30;;;;;;;;;;2089908;28;20229;-59
2021/01/25 01:32:53;;;;;;;52.60;33.73;;;;;;;;;;2091619;28;20192;-58
2021/01/25 01:33:53;;;;;;;52.10;32.80;;;;;;;;;;2091864;28;20175;-59
2021/01/25 01:34:53;;;;;;;46.80;33.77;;;;;;;;;;2092080;28;20220;-56
2021/01/25 01:35:54;;;;;;;58.43;35.13;;;;;;;;;;2101897;28;20182;-57
2021/01/25 01:36:54;;;;;;;49.90;33.40;;;;;;;;;;2105033;28;20177;-55
2021/01/25 01:37:54;;;;;;;51.97;34.80;;;;;;;;;;2102420;28;20659;-57
2021/01/25 01:38:55;;;;;;;56.53;34.83;;;;;;;;;;2102272;28;20244;-58
2021/01/25 01:39:55;;;;;;;48.93;33.50;;;;;;;;;;2104905;28;20246;-58
2021/01/25 01:40:58;;;;;;;53.10;34.27;;;;;;;;;;2102493;28;20166;-59
2021/01/25 01:41:59;;;;;;;54.30;34.23;;;;;;;;;;2110435;22;20229;-58
2021/01/25 01:42:59;;;;;;;48.10;33.27;;;;;;;;;;2094558;28;20427;-59
2021/01/25 01:43:59;;;;;;;52.73;34.27;;;;;;;;;;2092842;28;20225;-57
2021/01/25 01:45:01;;;;;;;53.23;32.33;;;;;;;;;;2094143;28;20233;-58
2021/01/25 01:46:02;;;;;;;50.23;32.03;;;;;;;;;;2100369;28;20306;-60
2021/01/25 01:47:02;;;;;;;47.77;31.83;;;;;;;;;;2097157;28;20489;-58
2021/01/25 01:48:02;;;;;;;47.07;31.73;;;;;;;;;;2100913;28;20172;-60
2021/01/25 01:49:03;;;;;;;51.80;35.10;;;;;;;;;;2100856;28;20203;-57
2021/01/25 01:50:04;;;;;;;55.73;34.50;;;;;;;;;;2092544;28;20334;-57
2021/01/25 01:51:04;;;;;;;51.80;34.07;;;;;;;;;;2092955;28;20639;-60
2021/01/25 01:52:05;;;;;;;47.07;33.47;;;;;;;;;;2099527;28;20682;-60
2021/01/25 01:53:06;;;;;;;50.97;32.17;;;;;;;;;;2094411;28;20705;-58
2021/01/25 01:54:06;;;;;;;52.03;32.97;;;;;;;;;;2084032;28;20184;-60
2021/01/25 01:55:07;;;;;;;49.03;32.43;;;;;;;;;;2085150;28;20671;-58
2021/01/25 01:56:07;;;;;;;47.93;32.07;;;;;;;;;;2093887;28;20191;-57
2021/01/25 01:57:08;;;;;;;58.27;34.90;;;;;;;;;;2094258;28;20167;-60
2021/01/25 01:58:08;;;;;;;47.97;33.33;;;;;;;;;;2094680;28;20199;-57
2021/01/25 01:59:09;;;;;;;46.07;32.60;;;;;;;;;;2095584;28;20179;-57
2021/01/25 02:00:09;;;;;;;59.17;34.93;;;;;;;;;;2093210;28;20203;-58
2021/01/25 02:01:12;;;;;;;49.37;33.80;;;;;;;;;;2095193;28;20207;-56
2021/01/25 02:02:13;;;;;;;56.23;33.57;;;;;;;;;;2093192;28;20435;-58
2021/01/25 02:03:13;;;;;;;59.37;37.20;;;;;;;;;;2094095;28;20182;-57
2021/01/25 02:04:14;;;;;;;61.53;37.47;;;;;;;;;;2095405;28;20171;-55
2021/01/25 02:05:14;;;;;;;58.37;36.40;;;;;;;;;;2094495;28;20174;-58
2021/01/25 02:06:15;;;;;;;59.37;37.00;;;;;;;;;;2093374;28;20172;-58
2021/01/25 02:07:16;;;;;;;57.80;36.80;;;;;;;;;;2092553;28;20183;-57
2021/01/25 02:08:17;;;;;;;53.83;34.97;;;;;;;;;;2095394;28;20301;-55
2021/01/25 02:09:17;;;;;;;55.63;36.97;;;;;;;;;;2093172;28;20415;-58
2021/01/25 02:10:19;;;;;;;55.50;34.87;;;;;;;;;;2085025;28;20819;-57
2021/01/25 02:11:19;;;;;;;55.27;35.33;;;;;;;;;;2085779;28;20188;-57
2021/01/25 02:12:20;;;;;;;57.07;35.47;;;;;;;;;;2095188;28;20473;-56
2021/01/25 02:13:21;;;;;;;56.73;36.37;;;;;;;;;;2094476;28;20176;-57
2021/01/25 02:14:21;;;;;;;55.27;34.30;;;;;;;;;;2084944;28;20584;-59
2021/01/25 02:15:22;;;;;;;53.73;34.83;;;;;;;;;;2077238;28;20195;-58
2021/01/25 02:16:22;;;;;;;50.37;33.60;;;;;;;;;;2075946;28;20176;-56
2021/01/25 02:17:22;;;;;;;45.10;31.80;;;;;;;;;;2083171;28;20797;-58
2021/01/25 02:18:22;;;;;;;51.20;33.33;;;;;;;;;;2092128;28;20828;-60
2021/01/25 02:19:35;;;;;;;50.23;32.37;;;;;;;;;;2089750;28;20270;-55
2021/01/25 02:20:40;;;;;;;49.47;31.30;;;;;;;;;;2091913;28;20171;-60
2021/01/25 02:21:51;;;;;;;54.77;34.60;;;;;;;;;;2090952;28;20420;-56
2021/01/25 02:22:54;;;;;;;54.27;33.13;;;;;;;;;;2084809;28;20992;-61
2021/01/25 02:23:54;;;;;;;51.07;34.50;;;;;;;;;;2080698;28;20417;-58
2021/01/25 02:25:08;;;;;;;55.17;35.97;;;;;;;;;;2084510;28;20459;-60
2021/01/25 02:26:27;;;;;;;56.57;36.10;;;;;;;;;;2085918;28;20686;-56
2021/01/25 02:27:30;;;;;;;47.70;33.20;;;;;;;;;;2085393;28;20425;-60
2021/01/25 02:28:30;;;;;;;56.50;35.27;;;;;;;;;;2082175;28;20414;-60
2021/01/25 02:29:31;;;;;;;52.47;33.47;;;;;;;;;;2096066;28;20786;-60
2021/01/25 02:30:31;;;;;;;54.53;36.07;;;;;;;;;;2084589;28;20199;-59
2021/01/25 02:31:31;;;;;;;54.37;35.97;;;;;;;;;;2075788;28;20184;-60
2021/01/25 02:32:32;;;;;;;60.47;36.80;;;;;;;;;;2084081;28;20654;-58
2021/01/25 02:33:34;;;;;;;53.00;36.33;;;;;;;;;;2094118;28;20174;-57
2021/01/25 02:34:34;;;;;;;54.07;36.37;;;;;;;;;;2092104;28;20469;-61
2021/01/25 02:35:36;;;;;;;58.43;37.03;;;;;;;;;;2090703;28;20423;-61
2021/01/25 02:36:37;;;;;;;56.10;35.97;;;;;;;;;;2083414;28;20196;-60
2021/01/25 02:37:38;;;;;;;55.47;35.57;;;;;;;;;;2075499;28;20429;-59
2021/01/25 02:38:42;;;;;;;56.07;35.80;;;;;;;;;;2076727;28;20212;-58
2021/01/25 02:39:43;;;;;;;56.77;36.60;;;;;;;;;;2086178;28;20455;-59
2021/01/25 02:40:46;;;;;;;64.37;38.53;;;;;;;;;;2092919;28;20416;-58
2021/01/25 02:41:46;;;;;;;57.87;37.33;;;;;;;;;;2094363;28;20187;-59
2021/01/25 02:42:47;;;;;;;59.57;38.17;;;;;;;;;;2093391;28;20518;-60
2021/01/25 02:43:48;;;;;;;57.90;39.33;;;;;;;;;;2083255;28;20555;-60
2021/01/25 02:44:49;;;;;;;63.73;40.07;;;;;;;;;;2075944;28;20518;-60
2021/01/25 02:45:50;;;;;;;69.27;43.80;;;;;;;;;;2084417;28;20427;-59
2021/01/25 02:46:50;;;;;;;65.93;42.40;;;;;;;;;;2093646;28;20175;-59
2021/01/25 02:47:51;;;;;;;66.50;41.83;;;;;;;;;;2085531;28;20731;-59
2021/01/25 02:48:51;;;;;;;70.87;42.97;;;;;;;;;;2083946;28;20553;-57
2021/01/25 02:49:51;;;;;;;70.07;42.80;;;;;;;;;;2085903;28;20418;-58
2021/01/25 02:50:52;;;;;;;70.93;39.23;;;;;;;;;;2081656;28;20259;-60
2021/01/25 02:51:52;;;;;;;67.13;39.27;;;;;;;;;;2092514;28;20233;-60
2021/01/25 02:52:52;;;;;;;66.10;41.63;;;;;;;;;;2091132;28;20383;-60
2021/01/25 02:53:53;;;;;;;69.60;40.90;;;;;;;;;;2086796;28;20282;-60
2021/01/25 02:54:54;;;;;;;73.77;43.67;;;;;;;;;;2083533;28;20203;-61
2021/01/25 02:55:55;;;;;;;70.93;41.63;;;;;;;;;;2089848;28;20168;-59
2021/01/25 02:56:56;;;;;;;72.27;42.37;;;;;;;;;;2094612;28;20448;-59
2021/01/25 02:57:56;;;;;;;66.47;42.00;;;;;;;;;;2093794;28;20813;-60
2021/01/25 02:58:56;;;;;;;66.10;40.73;;;;;;;;;;2075691;28;20189;-60
2021/01/25 02:59:57;;;;;;;64.83;39.57;;;;;;;;;;2076123;28;20707;-60
2021/01/25 03:00:57;;;;;;;66.20;40.63;;;;;;;;;;2081099;28;20172;-58
2021/01/25 03:01:58;;;;;;;67.10;39.43;;;;;;;;;;2078119;28;20583;-61
2021/01/25 03:02:58;;;;;;;66.73;40.43;;;;;;;;;;2082731;28;20238;-60
2021/01/25 03:03:59;;;;;;;64.90;40.93;;;;;;;;;;2094016;28;20254;-57
2021/01/25 03:05:00;;;;;;;66.93;39.33;;;;;;;;;;2093953;28;20179;-56
2021/01/25 03:06:01;;;;;;;64.17;38.10;;;;;;;;;;2092709;28;20172;-58
2021/01/25 03:07:01;;;;;;;62.80;39.60;;;;;;;;;;2092059;28;20210;-57
2021/01/25 03:08:03;;;;;;;59.10;37.00;;;;;;;;;;2092890;28;20229;-60
2021/01/25 03:09:03;;;;;;;64.53;39.00;;;;;;;;;;2094929;28;20267;-61
2021/01/25 03:10:04;;;;;;;62.43;40.17;;;;;;;;;;2099348;28;20408;-60
2021/01/25 03:11:05;;;;;;;61.80;39.83;;;;;;;;;;2097685;28;20171;-61
2021/01/25 03:12:05;;;;;;;59.37;38.13;;;;;;;;;;2097519;28;20256;-61
2021/01/25 03:13:06;;;;;;;60.73;37.80;;;;;;;;;;2099729;28;20167;-61
2021/01/25 03:14:10;;;;;;;57.90;37.93;;;;;;;;;;2088262;28;20186;-56
2021/01/25 03:15:11;;;;;;;58.87;38.50;;;;;;;;;;2084427;28;20176;-55
2021/01/25 03:16:15;;;;;;;58.77;37.47;;;;;;;;;;2083869;28;20421;-57
2021/01/25 03:17:15;;;;;;;52.37;36.27;;;;;;;;;;2082373;28;20455;-53
2021/01/25 03:18:15;;;;;;;57.40;38.97;;;;;;;;;;2093077;28;20440;-58
2021/01/25 03:19:15;;;;;;;56.10;37.50;;;;;;;;;;2092631;28;20229;-59
2021/01/25 03:20:16;;;;;;;62.37;41.63;;;;;;;;;;2081348;28;20173;-58
2021/01/25 03:21:16;;;;;;;68.30;42.37;;;;;;;;;;2085511;28;20194;-61
2021/01/25 03:22:16;;;;;;;66.30;43.63;;;;;;;;;;2093274;28;20198;-61
2021/01/25 03:23:17;;;;;;;66.67;42.23;;;;;;;;;;2088277;28;20172;-60
2021/01/25 03:24:17;;;;;;;67.93;41.20;;;;;;;;;;2092578;28;20187;-60
2021/01/25 03:25:17;;;;;;;69.20;41.27;;;;;;;;;;2091986;28;20179;-61
2021/01/25 03:26:18;;;;;;;64.00;41.00;;;;;;;;;;2092093;28;20175;-59
2021/01/25 03:27:18;;;;;;;57.70;36.97;;;;;;;;;;2092226;28;20202;-59
2021/01/25 03:28:18;;;;;;;65.93;39.50;;;;;;;;;;2093299;28;20176;-60
2021/01/25 03:29:19;;;;;;;61.77;38.30;;;;;;;;;;2095375;28;20179;-59
2021/01/25 03:30:19;;;;;;;58.37;38.90;;;;;;;;;;2093847;28;20213;-62
2021/01/25 03:31:19;;;;;;;61.60;39.53;;;;;;;;;;2093878;28;20232;-59
2021/01/25 03:32:19;;;;;;;63.23;39.27;;;;;;;;;;2094183;28;20203;-59
2021/01/25 03:33:20;;;;;;;61.47;38.67;;;;;;;;;;2094127;28;20206;-60
2021/01/25 03:34:20;;;;;;;55.17;37.33;;;;;;;;;;2084788;28;20180;-58
2021/01/25 03:35:20;;;;;;;56.27;37.43;;;;;;;;;;2085391;28;20301;-59
2021/01/25 03:36:20;;;;;;;59.27;38.20;;;;;;;;;;2082917;28;20175;-62
2021/01/25 03:37:21;;;;;;;60.90;37.50;;;;;;;;;;2091397;28;20659;-59
2021/01/25 03:38:21;;;;;;;61.67;39.90;;;;;;;;;;2092010;28;20206;-60
2021/01/25 03:39:21;;;;;;;62.57;38.90;;;;;;;;;;2085370;28;20218;-60
2021/01/25 03:40:21;;;;;;;60.03;39.20;;;;;;;;;;2084176;28;20176;-60
2021/01/25 03:41:22;;;;;;;57.10;38.10;;;;;;;;;;2091139;28;20628;-60
2021/01/25 03:42:22;;;;;;;60.20;38.23;;;;;;;;;;2091490;28;20235;-61
2021/01/25 03:43:22;;;;;;;54.97;36.67;;;;;;;;;;2082945;28;20173;-59
2021/01/25 03:44:22;;;;;;;55.73;36.93;;;;;;;;;;2078277;28;20211;-62
2021/01/25 03:45:23;;;;;;;56.87;38.47;;;;;;;;;;2084361;28;20184;-60
2021/01/25 03:46:23;;;;;;;54.70;36.40;;;;;;;;;;2093731;28;20168;-60
2021/01/25 03:47:23;;;;;;;62.13;37.97;;;;;;;;;;2094859;28;20179;-60
2021/01/25 03:48:24;;;;;;;60.50;36.70;;;;;;;;;;2085795;28;20566;-61
2021/01/25 03:49:24;;;;;;;56.90;36.43;;;;;;;;;;2084492;28;20219;-61
2021/01/25 03:50:24;;;;;;;60.57;37.47;;;;;;;;;;2084322;28;20219;-62
2021/01/25 03:51:24;;;;;;;60.67;39.53;;;;;;;;;;2088463;28;20214;-62
2021/01/25 03:52:25;;;;;;;65.03;38.27;;;;;;;;;;2091765;28;20277;-61
2021/01/25 03:53:25;;;;;;;57.97;35.43;;;;;;;;;;2086997;28;20184;-61
2021/01/25 03:54:25;;;;;;;53.17;36.20;;;;;;;;;;2076275;28;20191;-60
2021/01/25 03:55:26;;;;;;;53.40;34.63;;;;;;;;;;2077133;28;20175;-58
2021/01/25 03:56:26;;;;;;;56.50;37.00;;;;;;;;;;2092757;28;20176;-61
2021/01/25 03:57:26;;;;;;;53.03;35.93;;;;;;;;;;2092203;28;20721;-59
2021/01/25 03:58:26;;;;;;;49.30;33.97;;;;;;;;;;2090587;28;20224;-61
2021/01/25 03:59:26;;;;;;;55.23;35.47;;;;;;;;;;2089977;28;20556;-59
2021/01/25 04:00:27;;;;;;;53.63;34.80;;;;;;;;;;2092473;28;20262;-58
2021/01/25 04:01:27;;;;;;;52.33;35.53;;;;;;;;;;2089917;28;20174;-60
2021/01/25 04:02:27;;;;;;;58.47;37.63;;;;;;;;;;2083066;28;20194;-59
2021/01/25 04:03:27;;;;;;;55.43;36.30;;;;;;;;;;2084106;28;20175;-59
2021/01/25 04:04:28;;;;;;;56.17;36.53;;;;;;;;;;2084708;28;20254;-59
2021/01/25 04:05:28;;;;;;;52.90;36.20;;;;;;;;;;2083580;28;20648;-60
2021/01/25 04:06:28;;;;;;;59.00;36.63;;;;;;;;;;2091078;28;20198;-59
2021/01/25 04:07:28;;;;;;;56.97;36.37;;;;;;;;;;2091500;28;20229;-59
2021/01/25 04:08:29;;;;;;;56.40;36.67;;;;;;;;;;2090937;28;20656;-57
2021/01/25 04:09:29;;;;;;;59.67;37.10;;;;;;;;;;2092438;28;20241;-56
2021/01/25 04:10:29;;;;;;;57.10;37.50;;;;;;;;;;2090836;28;20207;-60
2021/01/25 04:11:29;;;;;;;55.47;37.03;;;;;;;;;;2091177;28;20601;-57
2021/01/25 04:12:30;;;;;;;55.73;35.57;;;;;;;;;;2092683;28;20258;-54
2021/01/25 04:13:30;;;;;;;59.03;38.10;;;;;;;;;;2091686;28;20207;-60
2021/01/25 04:14:31;;;;;;;51.57;35.17;;;;;;;;;;2090837;28;20207;-56
2021/01/25 04:15:31;;;;;;;58.80;37.40;;;;;;;;;;2092327;28;20179;-60
2021/01/25 04:16:31;;;;;;;60.37;36.53;;;;;;;;;;2090094;28;20176;-62
2021/01/25 04:17:31;;;;;;;57.77;36.70;;;;;;;;;;2090133;28;20222;-61
2021/01/25 04:18:32;;;;;;;52.83;35.67;;;;;;;;;;2089295;28;20211;-61
2021/01/25 04:19:32;;;;;;;58.23;37.10;;;;;;;;;;2083756;28;20168;-57
2021/01/25 04:20:32;;;;;;;61.27;38.17;;;;;;;;;;2082591;28;20587;-59
2021/01/25 04:21:32;;;;;;;59.07;37.60;;;;;;;;;;2092994;28;20544;-59
2021/01/25 04:22:33;;;;;;;54.23;34.57;;;;;;;;;;2091399;28;20248;-58
2021/01/25 04:23:33;;;;;;;55.50;35.37;;;;;;;;;;2092386;28;20166;-59
2021/01/25 04:24:34;;;;;;;55.90;36.43;;;;;;;;;;2089444;28;20180;-59
2021/01/25 04:25:34;;;;;;;50.77;34.87;;;;;;;;;;2083155;28;20243;-58
2021/01/25 04:26:34;;;;;;;50.57;35.30;;;;;;;;;;2082286;28;20673;-61
2021/01/25 04:27:34;;;;;;;59.10;38.87;;;;;;;;;;2091413;28;20220;-60
2021/01/25 04:28:35;;;;;;;52.03;36.83;;;;;;;;;;2083307;28;20178;-59
2021/01/25 04:29:35;;;;;;;58.57;38.27;;;;;;;;;;2077297;28;20193;-59
2021/01/25 04:30:35;;;;;;;59.90;37.77;;;;;;;;;;2080901;28;20195;-64
2021/01/25 04:31:35;;;;;;;57.63;36.37;;;;;;;;;;2090781;28;20207;-60
2021/01/25 04:32:37;;;;;;;59.17;37.20;;;;;;;;;;2094278;28;20223;-60
2021/01/25 04:33:38;;;;;;;61.20;38.93;;;;;;;;;;2089603;28;20908;-61
2021/01/25 04:34:38;;;;;;;58.63;38.80;;;;;;;;;;2092790;28;20419;-59
2021/01/25 04:35:40;;;;;;;63.30;39.40;;;;;;;;;;2092587;28;20592;-61
2021/01/25 04:36:40;;;;;;;58.93;36.90;;;;;;;;;;2088561;28;20577;-58
2021/01/25 04:37:41;;;;;;;56.20;37.33;;;;;;;;;;2093139;28;20423;-58
2021/01/25 04:38:41;;;;;;;57.50;37.30;;;;;;;;;;2083448;28;20211;-60
2021/01/25 04:39:41;;;;;;;53.20;37.10;;;;;;;;;;2082928;28;20637;-60
2021/01/25 04:40:42;;;;;;;56.63;36.30;;;;;;;;;;2090781;28;20578;-60
2021/01/25 04:41:42;;;;;;;55.40;34.50;;;;;;;;;;2092336;28;20163;-60
2021/01/25 04:42:42;;;;;;;51.17;34.93;;;;;;;;;;2090581;28;20264;-58
2021/01/25 04:43:43;;;;;;;52.90;34.50;;;;;;;;;;2091428;28;20191;-61
2021/01/25 04:44:43;;;;;;;52.77;34.47;;;;;;;;;;2092369;28;20202;-58
2021/01/25 04:45:44;;;;;;;48.90;33.23;;;;;;;;;;2090845;28;20206;-58
2021/01/25 04:46:45;;;;;;;52.90;34.93;;;;;;;;;;2083802;28;20649;-60
2021/01/25 04:47:48;;;;;;;49.90;34.40;;;;;;;;;;2083153;28;20569;-61
2021/01/25 04:48:49;;;;;;;51.50;33.73;;;;;;;;;;2092366;28;20266;-56
2021/01/25 04:49:50;;;;;;;46.00;33.33;;;;;;;;;;2083329;28;20421;-59
2021/01/25 04:50:51;;;;;;;52.43;32.83;;;;;;;;;;2083112;28;20222;-60
2021/01/25 04:51:53;;;;;;;50.83;35.77;;;;;;;;;;2082005;28;20463;-61
2021/01/25 04:52:53;;;;;;;49.43;32.90;;;;;;;;;;2084220;28;20515;-57
2021/01/25 04:53:54;;;;;;;54.37;34.83;;;;;;;;;;2090458;28;20429;-61
2021/01/25 04:54:56;;;;;;;47.47;32.60;;;;;;;;;;2092739;28;20201;-59
2021/01/25 04:55:57;;;;;;;49.67;32.87;;;;;;;;;;2086551;28;20214;-60
2021/01/25 04:56:58;;;;;;;51.40;33.30;;;;;;;;;;2081980;28;20557;-59
2021/01/25 04:57:59;;;;;;;47.13;31.90;;;;;;;;;;2083057;28;20436;-57
2021/01/25 04:58:59;;;;;;;53.07;35.03;;;;;;;;;;2092733;28;20476;-59
2021/01/25 05:00:02;;;;;;;54.97;33.40;;;;;;;;;;2090916;28;20199;-60
2021/01/25 05:01:02;;;;;;;54.80;34.47;;;;;;;;;;2080625;28;20211;-61
2021/01/25 05:02:03;;;;;;;54.00;33.80;;;;;;;;;;2082045;28;20463;-58
2021/01/25 05:03:03;;;;;;;52.47;35.13;;;;;;;;;;2087500;28;20715;-60
2021/01/25 05:04:03;;;;;;;49.20;33.97;;;;;;;;;;2091830;28;20179;-55
2021/01/25 05:05:07;;;;;;;42.73;32.63;;;;;;;;;;2083208;28;20180;-60
2021/01/25 05:06:08;;;;;;;46.93;30.20;;;;;;;;;;2082883;28;20613;-57
2021/01/25 05:07:08;;;;;;;48.77;33.77;;;;;;;;;;2091210;28;20420;-60
2021/01/25 05:08:08;;;;;;;46.80;33.67;;;;;;;;;;2092347;28;20172;-57
2021/01/25 05:09:09;;;;;;;48.93;33.33;;;;;;;;;;2090683;28;20313;-58
2021/01/25 05:10:09;;;;;;;48.33;31.57;;;;;;;;;;2084843;28;20187;-59
2021/01/25 05:11:11;;;;;;;47.97;33.13;;;;;;;;;;2083989;28;20809;-60
2021/01/25 05:12:11;;;;;;;50.13;33.53;;;;;;;;;;2092107;28;20202;-61
2021/01/25 05:13:19;;;;;;;51.47;33.70;;;;;;;;;;2092910;28;20499;-60
2021/01/25 05:14:19;;;;;;;53.03;34.93;;;;;;;;;;2091312;28;20523;-60
2021/01/25 05:15:29;;;;;;;52.37;34.20;;;;;;;;;;2089228;28;20487;-61
2021/01/25 05:16:30;;;;;;;53.07;32.97;;;;;;;;;;2091650;28;20175;-60
2021/01/25 05:17:31;;;;;;;50.63;34.20;;;;;;;;;;2093710;28;20411;-57
2021/01/25 05:18:35;;;;;;;49.67;33.57;;;;;;;;;;2087575;28;20551;-58
2021/01/25 05:19:36;;;;;;;49.80;34.67;;;;;;;;;;2085377;28;20171;-60
2021/01/25 05:20:36;;;;;;;49.97;34.67;;;;;;;;;;2093086;28;20419;-61
2021/01/25 05:21:43;;;;;;;51.13;34.47;;;;;;;;;;2093440;28;20423;-60
2021/01/25 05:22:43;;;;;;;50.27;33.00;;;;;;;;;;2092825;28;20217;-59
2021/01/25 05:23:43;;;;;;;57.13;32.93;;;;;;;;;;2093799;28;20416;-58
2021/01/25 05:24:44;;;;;;;51.90;35.57;;;;;;;;;;2093176;28;20202;-55
2021/01/25 05:25:45;;;;;;;54.57;34.83;;;;;;;;;;2092575;28;20186;-60
2021/01/25 05:26:52;;;;;;;53.03;34.13;;;;;;;;;;2093617;28;20523;-58
2021/01/25 05:27:52;;;;;;;55.00;35.47;;;;;;;;;;2093684;28;20588;-60
2021/01/25 05:28:52;;;;;;;53.10;34.20;;;;;;;;;;2093818;28;20427;-60
2021/01/25 05:29:53;;;;;;;46.67;34.33;;;;;;;;;;2094035;28;20210;-58
2021/01/25 05:30:53;;;;;;;51.17;33.30;;;;;;;;;;2094302;28;20187;-59
2021/01/25 05:31:56;;;;;;;54.70;34.23;;;;;;;;;;2084123;28;20188;-59
2021/01/25 05:32:57;;;;;;;49.07;32.27;;;;;;;;;;2085482;28;20184;-60
2021/01/25 05:33:58;;;;;;;49.90;34.13;;;;;;;;;;2091300;28;20439;-54
2021/01/25 05:35:02;;;;;;;48.17;32.80;;;;;;;;;;2094213;28;20438;-61
2021/01/25 05:36:03;;;;;;;50.73;33.73;;;;;;;;;;2094180;28;20191;-60
2021/01/25 05:37:03;;;;;;;49.50;32.70;;;;;;;;;;2094247;28;20558;-59
2021/01/25 05:38:05;;;;;;;49.00;32.73;;;;;;;;;;2095108;28;20182;-60
2021/01/25 05:39:06;;;;;;;50.50;33.97;;;;;;;;;;2093792;28;20171;-60
2021/01/25 05:40:07;;;;;;;51.57;33.10;;;;;;;;;;2095544;28;20426;-61
2021/01/25 05:41:07;;;;;;;51.63;33.60;;;;;;;;;;2095736;28;20444;-61
2021/01/25 05:42:07;;;;;;;57.27;36.90;;;;;;;;;;2094053;28;20239;-60
2021/01/25 05:43:12;;;;;;;54.47;35.13;;;;;;;;;;2087373;28;20172;-58
2021/01/25 05:44:15;;;;;;;51.33;34.27;;;;;;;;;;2085738;28;20190;-60
2021/01/25 05:45:16;;;;;;;56.33;35.80;;;;;;;;;;2093699;28;20418;-60
2021/01/25 05:46:17;;;;;;;54.53;34.63;;;;;;;;;;2096615;28;20927;-60
2021/01/25 05:47:18;;;;;;;55.13;36.20;;;;;;;;;;2092039;28;20172;-60
2021/01/25 05:48:18;;;;;;;55.53;36.30;;;;;;;;;;2087826;28;20435;-63
2021/01/25 05:49:25;;;;;;;53.47;33.73;;;;;;;;;;2085728;28;20655;-63
2021/01/25 05:50:30;;;;;;;49.17;33.63;;;;;;;;;;2093914;28;20255;-60
2021/01/25 05:51:30;;;;;;;51.00;33.73;;;;;;;;;;2095207;28;20412;-61
2021/01/25 05:52:31;;;;;;;50.37;33.23;;;;;;;;;;2086807;28;20461;-59
2021/01/25 05:53:31;;;;;;;48.60;33.10;;;;;;;;;;2085727;28;20170;-58